Time;durP1;ratioP1;P1;durP2;ratioP2;P2;SDS_P1;SDS_P2;PMS_P1;PMS_P2;Temp;Humidity;BMP_temperature;BMP_pressure;BME280_temperature;BME280_humidity;BME280_pressure;Samples;Min_cycle;Max_cycle;Signal;HPM_P1;HPM_P2
2021/07/15 00:02:05;;;;;;;18.42;10.57;;;;;;;25.72;67.29;99715.97;5038834;28;20079;-65
2021/07/15 00:04:31;;;;;;;43.13;24.58;;;;;;;25.78;67.28;99713.03;5038661;28;20041;-65
2021/07/15 00:06:57;;;;;;;44.20;22.23;;;;;;;25.99;66.51;99721.28;5039140;28;20044;-68
2021/07/15 00:09:22;;;;;;;51.03;28.85;;;;;;;26.07;66.33;99715.38;5038655;28;20017;-65
2021/07/15 00:11:48;;;;;;;55.17;30.15;;;;;;;26.16;66.60;99718.41;5039700;28;20303;-66
2021/07/15 00:14:18;;;;;;;47.88;25.70;;;;;;;26.26;66.12;99724.69;5040641;28;20030;-68
2021/07/15 00:16:43;;;;;;;51.10;25.92;;;;;;;26.27;65.79;99711.94;5041835;28;20346;-68
2021/07/15 00:19:11;;;;;;;44.88;25.00;;;;;;;26.22;66.29;99710.03;5039011;28;20089;-68
2021/07/15 00:21:37;;;;;;;40.42;24.02;;;;;;;26.19;65.96;99713.25;5039250;28;20100;-68
2021/07/15 00:24:03;;;;;;;45.92;23.88;;;;;;;26.11;65.85;99700.22;5038016;28;20029;-68
2021/07/15 00:26:29;;;;;;;35.38;20.65;;;;;;;26.24;65.74;99707.84;5038445;28;20048;-68
2021/07/15 00:28:54;;;;;;;35.25;18.33;;;;;;;26.31;65.03;99718.47;5038833;28;20266;-66
2021/07/15 00:31:20;;;;;;;28.02;16.65;;;;;;;26.28;65.49;99717.09;5040779;28;20300;-68
2021/07/15 00:33:45;;;;;;;29.88;16.83;;;;;;;26.38;64.75;99724.50;5041216;28;20033;-66
2021/07/15 00:36:12;;;;;;;29.58;14.73;;;;;;;26.36;64.88;99722.06;5038306;28;20037;-65
2021/07/15 00:38:38;;;;;;;23.13;14.10;;;;;;;26.40;64.56;99725.06;5037678;28;20025;-65
2021/07/15 00:41:04;;;;;;;21.63;13.48;;;;;;;26.38;65.04;99719.06;5038916;28;20045;-68
2021/07/15 00:43:30;;;;;;;25.02;14.15;;;;;;;26.33;64.94;99719.88;5037500;28;20219;-65
2021/07/15 00:45:56;;;;;;;21.58;13.98;;;;;;;26.30;65.31;99720.38;5038843;28;20047;-66
2021/07/15 00:48:21;;;;;;;21.60;13.48;;;;;;;26.32;65.37;99720.94;5037632;28;20037;-68
2021/07/15 00:50:47;;;;;;;22.60;13.57;;;;;;;26.36;64.13;99713.09;5037761;28;20029;-68
2021/07/15 00:53:13;;;;;;;18.55;12.82;;;;;;;26.39;64.05;99710.66;5038356;28;20282;-68
2021/07/15 00:55:42;;;;;;;24.92;13.20;;;;;;;26.39;64.05;99718.00;5037382;28;20033;-67
2021/07/15 00:58:10;;;;;;;26.40;13.20;;;;;;;26.41;63.43;99718.53;5037570;28;20029;-67
2021/07/15 01:00:40;;;;;;;18.77;13.23;;;;;;;26.25;64.70;99716.81;5038465;28;20068;-67
2021/07/15 01:03:08;;;;;;;23.73;13.85;;;;;;;26.01;65.79;99711.84;5037393;28;20258;-65
2021/07/15 01:05:37;;;;;;;25.15;14.10;;;;;;;25.84;66.21;99702.22;5037493;28;20319;-65
2021/07/15 01:08:04;;;;;;;18.98;13.57;;;;;;;25.98;66.46;99706.91;5035156;28;20101;-68
2021/07/15 01:10:38;;;;;;;20.15;12.65;;;;;;;26.06;65.87;99709.16;5038411;28;20242;-68
2021/07/15 01:13:22;;;;;;;;;;;;;;;26.08;65.87;99711.59;5037783;28;20088;-68
2021/07/15 01:16:24;;;;;;;17.17;12.35;;;;;;;25.90;66.34;99709.31;5037658;28;19917;-65
2021/07/15 01:18:58;;;;;;;21.20;12.57;;;;;;;25.71;67.08;99704.31;5038743;28;20049;-67
2021/07/15 01:22:11;;;;;;;17.88;13.25;;;;;;;25.65;67.17;99705.34;5038210;28;20045;-65
2021/07/15 01:25:25;;;;;;;23.30;12.88;;;;;;;25.72;67.18;99697.81;5020007;28;20322;-68
2021/07/15 01:28:05;;;;;;;27.10;13.60;;;;;;;25.92;65.94;99701.72;5036094;28;20212;-68
2021/07/15 01:30:32;;;;;;;20.80;12.85;;;;;;;25.95;65.85;99696.56;5037175;28;20034;-68
2021/07/15 01:33:30;;;;;;;22.88;12.98;;;;;;;26.04;65.11;99705.06;5038541;28;20029;-65
2021/07/15 01:36:09;;;;;;;21.73;13.55;;;;;;;26.01;65.23;99698.25;5037398;28;20037;-65
2021/07/15 01:38:40;;;;;;;14.73;12.25;;;;;;;25.94;64.10;99694.94;5035411;28;20037;-65
2021/07/15 01:41:20;;;;;;;18.90;12.88;;;;;;;25.87;63.91;99690.84;5035582;28;20056;-65
2021/07/15 01:43:51;;;;;;;22.30;12.70;;;;;;;25.72;64.11;99684.25;5037874;28;20060;-68
2021/07/15 01:46:17;;;;;;;27.50;13.55;;;;;;;25.73;64.93;99693.22;5036875;28;20042;-68
2021/07/15 01:48:44;;;;;;;17.67;13.18;;;;;;;25.83;64.58;99685.13;5040412;28;20029;-68
2021/07/15 01:51:11;;;;;;;22.20;13.43;;;;;;;25.81;64.29;99689.19;5041966;28;20046;-68
2021/07/15 01:53:37;;;;;;;20.67;12.63;;;;;;;25.79;64.69;99689.44;5040683;28;20123;-67
2021/07/15 01:56:06;;;;;;;24.42;13.80;;;;;;;25.80;65.27;99687.53;5041080;28;20325;-68
2021/07/15 01:58:34;;;;;;;18.75;13.40;;;;;;;25.83;65.24;99695.97;5041676;28;20033;-68
2021/07/15 02:01:02;;;;;;;23.48;14.18;;;;;;;25.88;65.26;99690.56;5040652;28;20037;-65
2021/07/15 02:03:29;;;;;;;24.73;13.50;;;;;;;25.88;65.33;99695.19;5041146;28;20033;-65
2021/07/15 02:05:56;;;;;;;22.08;13.57;;;;;;;25.89;65.23;99691.38;5041743;28;20041;-65
2021/07/15 02:08:22;;;;;;;26.17;13.88;;;;;;;25.88;65.07;99700.59;5040415;28;20041;-67
2021/07/15 02:10:48;;;;;;;23.02;13.68;;;;;;;25.88;65.47;99692.47;5040947;28;20033;-68
2021/07/15 02:13:14;;;;;;;19.85;12.75;;;;;;;25.87;63.64;99694.38;5041283;28;20029;-68
2021/07/15 02:15:41;;;;;;;17.25;12.70;;;;;;;25.78;63.34;99695.94;5040662;28;20037;-65
2021/07/15 02:18:15;;;;;;;18.52;13.48;;;;;;;25.68;64.98;99693.16;5040179;28;20033;-68
2021/07/15 02:20:43;;;;;;;20.70;12.90;;;;;;;25.67;63.93;99697.78;5041471;28;20044;-65
2021/07/15 02:23:10;;;;;;;19.48;12.57;;;;;;;25.63;63.72;99693.13;5039925;28;20029;-65
2021/07/15 02:25:38;;;;;;;21.90;14.07;;;;;;;25.50;64.25;99693.56;5040395;28;20034;-65
2021/07/15 02:28:07;;;;;;;21.15;13.38;;;;;;;25.48;65.16;99703.84;5040523;28;20346;-65
2021/07/15 02:30:33;;;;;;;24.25;13.65;;;;;;;25.51;65.34;99704.16;5040160;28;20080;-68
2021/07/15 02:33:03;;;;;;;21.25;12.40;;;;;;;25.53;63.94;99707.41;5043895;28;20328;-68
2021/07/15 02:35:33;;;;;;;21.83;13.82;;;;;;;25.52;65.48;99703.06;5042519;28;20270;-65
2021/07/15 02:38:00;;;;;;;35.63;13.02;;;;;;;25.49;63.78;99697.34;5042248;28;20060;-65
2021/07/15 02:40:26;;;;;;;41.72;13.30;;;;;;;25.38;64.16;99700.00;5044028;28;20350;-68
2021/07/15 02:42:52;;;;;;;42.20;14.50;;;;;;;25.30;64.33;99702.38;5040309;28;20096;-68
2021/07/15 02:45:20;;;;;;;42.20;14.57;;;;;;;25.30;65.07;99702.38;5031921;28;20022;-68
2021/07/15 02:47:47;;;;;;;23.98;14.52;;;;;;;25.38;66.09;99704.59;5041710;28;20326;-65
2021/07/15 02:50:15;;;;;;;32.50;14.23;;;;;;;25.34;65.63;99700.78;5043375;28;20101;-68
2021/07/15 02:52:43;;;;;;;26.65;12.40;;;;;;;25.29;64.22;99698.84;5041308;28;20192;-65
2021/07/15 02:55:11;;;;;;;34.85;14.80;;;;;;;25.06;65.71;99696.50;5036894;28;20041;-68
2021/07/15 02:57:58;;;;;;;22.33;15.23;;;;;;;25.01;66.79;99697.25;5040385;28;20029;-65
2021/07/15 03:00:26;;;;;;;31.33;15.25;;;;;;;25.00;67.06;99700.22;5034392;28;20114;-68
2021/07/15 03:03:22;;;;;;;25.05;13.70;;;;;;;25.02;66.50;99698.09;5038157;28;20339;-65
2021/07/15 03:06:02;;;;;;;26.90;15.15;;;;;;;25.04;66.36;99699.47;5040201;28;20041;-65
2021/07/15 03:08:34;;;;;;;18.58;14.43;;;;;;;25.00;66.36;99701.03;5040275;28;20041;-68
2021/07/15 03:11:04;;;;;;;21.75;14.50;;;;;;;24.90;66.51;99697.38;5042739;28;20045;-68
2021/07/15 03:13:30;;;;;;;25.60;14.77;;;;;;;24.91;66.31;99709.84;5042836;28;20030;-68
2021/07/15 03:15:56;;;;;;;23.35;14.63;;;;;;;24.92;65.76;99709.56;5039288;28;20033;-68
2021/07/15 03:18:26;;;;;;;21.73;16.10;;;;;;;24.98;66.08;99707.78;5040298;28;20037;-65
2021/07/15 03:20:54;;;;;;;21.40;15.95;;;;;;;25.00;65.83;99711.06;5039338;28;20223;-68
2021/07/15 03:23:23;;;;;;;27.52;17.17;;;;;;;25.04;65.77;99710.28;5039335;28;20025;-65
2021/07/15 03:25:52;;;;;;;21.02;14.73;;;;;;;25.12;65.48;99707.13;5039940;28;20220;-68
2021/07/15 03:28:21;;;;;;;17.42;13.95;;;;;;;25.22;64.18;99709.09;5039934;28;20033;-68
2021/07/15 03:30:49;;;;;;;25.80;17.08;;;;;;;25.30;63.58;99708.59;5039120;28;20041;-65
2021/07/15 03:33:15;;;;;;;28.55;15.32;;;;;;;25.30;64.08;99705.91;5038785;28;20013;-68
2021/07/15 03:35:42;;;;;;;25.00;14.50;;;;;;;25.32;63.90;99708.34;5039704;28;20045;-68
2021/07/15 03:38:09;;;;;;;27.45;15.23;;;;;;;25.36;64.54;99704.88;5038983;28;20075;-65
2021/07/15 03:40:35;;;;;;;35.45;13.98;;;;;;;25.51;63.80;99703.34;5039878;28;20041;-68
2021/07/15 03:43:02;;;;;;;46.70;16.30;;;;;;;25.54;64.15;99695.50;5038627;28;20143;-68
2021/07/15 03:45:28;;;;;;;45.92;16.02;;;;;;;25.63;63.88;99709.38;5037715;28;20044;-68
2021/07/15 03:47:55;;;;;;;39.70;15.50;;;;;;;25.66;64.23;99707.00;5041102;28;20287;-65
2021/07/15 03:50:24;;;;;;;40.63;16.00;;;;;;;25.70;64.62;99710.81;5039398;28;20036;-65
2021/07/15 03:52:52;;;;;;;34.60;16.00;;;;;;;25.75;64.46;99710.84;5038435;28;20025;-68
2021/07/15 03:55:23;;;;;;;46.78;17.15;;;;;;;25.82;64.49;99707.09;5040838;28;20033;-68
2021/07/15 03:57:50;;;;;;;40.10;15.95;;;;;;;25.85;64.51;99707.38;5041086;28;20299;-68
2021/07/15 04:00:18;;;;;;;37.08;16.45;;;;;;;25.95;64.76;99706.63;5039272;28;20037;-68
2021/07/15 04:02:45;;;;;;;47.58;17.02;;;;;;;26.05;64.47;99712.13;5038349;28;20033;-68
2021/07/15 04:05:13;;;;;;;54.10;18.05;;;;;;;25.98;64.75;99700.66;5038602;28;20033;-65
2021/07/15 04:07:40;;;;;;;70.18;18.20;;;;;;;26.00;65.34;99704.75;5038924;28;20381;-65
2021/07/15 04:10:06;;;;;;;33.33;16.23;;;;;;;25.94;66.17;99707.69;5037810;28;20345;-68
2021/07/15 04:12:34;;;;;;;31.70;16.75;;;;;;;25.89;67.11;99694.91;5035642;28;20323;-66
2021/07/15 04:15:00;;;;;;;32.22;16.17;;;;;;;25.91;67.33;99709.03;5039332;28;20115;-67
2021/07/15 04:17:29;;;;;;;28.48;16.20;;;;;;;25.86;67.45;99713.63;5038070;28;20053;-68
2021/07/15 04:19:59;;;;;;;26.10;16.88;;;;;;;25.87;68.15;99713.34;5039287;28;20032;-67
2021/07/15 04:22:27;;;;;;;23.25;15.80;;;;;;;25.87;67.31;99715.25;5038601;28;20060;-68
2021/07/15 04:24:53;;;;;;;25.33;15.55;;;;;;;25.87;67.14;99712.53;5037765;28;20021;-67
2021/07/15 04:27:19;;;;;;;24.00;16.00;;;;;;;26.05;66.45;99717.53;5042026;28;20092;-65
2021/07/15 04:29:46;;;;;;;30.40;16.40;;;;;;;26.30;65.74;99722.25;5041238;28;20346;-68
2021/07/15 04:32:27;;;;;;;29.27;15.43;;;;;;;26.49;65.16;99717.19;5037739;28;20327;-68
2021/07/15 04:34:55;;;;;;;24.45;14.65;;;;;;;26.66;64.79;99721.31;5038354;28;20049;-65
2021/07/15 04:37:21;;;;;;;21.55;14.60;;;;;;;26.74;64.88;99719.97;5037596;28;20079;-65
2021/07/15 04:39:47;;;;;;;29.67;16.20;;;;;;;26.91;64.60;99727.88;5038337;28;20104;-67
2021/07/15 04:42:15;;;;;;;21.10;15.40;;;;;;;27.00;64.18;99716.25;5037476;28;20044;-66
2021/07/15 04:44:43;;;;;;;25.52;15.68;;;;;;;27.12;63.96;99724.16;5036731;28;20026;-65
2021/07/15 04:47:09;;;;;;;25.90;17.00;;;;;;;27.15;63.08;99710.03;5038319;28;20033;-68
2021/07/15 04:49:35;;;;;;;31.75;17.48;;;;;;;27.22;63.39;99718.72;5035851;28;20078;-68
2021/07/15 04:52:02;;;;;;;32.90;17.98;;;;;;;27.20;63.60;99718.19;5029201;28;20217;-65
2021/07/15 04:54:29;;;;;;;30.30;16.08;;;;;;;27.18;63.71;99712.22;5038116;28;20345;-68
2021/07/15 04:56:55;;;;;;;31.77;15.15;;;;;;;27.47;62.17;99711.66;5035246;28;20036;-65
2021/07/15 04:59:22;;;;;;;30.35;14.10;;;;;;;27.50;61.74;99720.06;5036632;28;20397;-65
2021/07/15 05:01:48;;;;;;;41.72;20.17;;;;;;;27.69;62.21;99719.53;5038812;28;20053;-68
2021/07/15 05:04:13;;;;;;;43.92;23.60;;;;;;;27.73;62.20;99721.44;5037807;28;20025;-68
2021/07/15 05:06:39;;;;;;;45.22;25.98;;;;;;;27.85;61.95;99710.25;5038780;28;20056;-65
2021/07/15 05:09:05;;;;;;;55.08;28.92;;;;;;;27.62;62.82;99717.09;5037397;28;20055;-65
2021/07/15 05:11:34;;;;;;;46.33;23.45;;;;;;;27.91;61.26;99712.66;5036315;28;20104;-66
2021/07/15 05:14:02;;;;;;;51.72;26.95;;;;;;;28.14;61.25;99716.72;5038218;28;20204;-68
2021/07/15 05:16:28;;;;;;;44.45;22.73;;;;;;;28.13;60.51;99717.78;5037623;28;20100;-68
2021/07/15 05:18:54;;;;;;;19.75;14.25;;;;;;;28.32;60.26;99717.22;5037886;28;20017;-65
2021/07/15 05:21:19;;;;;;;27.55;15.35;;;;;;;28.48;60.15;99711.41;5039463;28;20033;-65
2021/07/15 05:23:45;;;;;;;27.13;13.30;;;;;;;28.66;59.44;99707.22;5044497;28;20029;-65
2021/07/15 05:26:10;;;;;;;21.60;12.75;;;;;;;28.73;59.00;99710.44;5046147;28;20037;-65
2021/07/15 05:28:35;;;;;;;19.73;13.27;;;;;;;28.70;58.16;99704.75;5045705;28;20040;-68
2021/07/15 05:31:01;;;;;;;22.70;13.50;;;;;;;28.72;58.82;99705.28;5046158;28;20049;-65
2021/07/15 05:33:26;;;;;;;23.52;13.85;;;;;;;28.54;59.73;99704.03;5045919;28;20055;-68
2021/07/15 05:35:52;;;;;;;20.45;12.48;;;;;;;28.90;58.99;99700.00;5046013;28;20037;-65
2021/07/15 05:38:18;;;;;;;21.35;13.57;;;;;;;28.57;58.25;99701.53;5045342;28;20049;-65
2021/07/15 05:40:43;;;;;;;23.35;15.20;;;;;;;28.78;56.98;99693.25;5046146;28;20025;-68
2021/07/15 05:43:08;;;;;;;27.55;17.45;;;;;;;28.91;57.80;99703.53;5045503;28;20104;-68
2021/07/15 05:45:34;;;;;;;26.23;14.05;;;;;;;29.04;57.44;99700.16;5045572;28;20040;-66
2021/07/15 05:47:59;;;;;;;21.33;14.65;;;;;;;29.26;55.71;99704.38;5045415;28;20096;-68
2021/07/15 05:50:25;;;;;;;23.23;14.07;;;;;;;29.49;55.15;99699.00;5044398;28;20029;-65
2021/07/15 05:52:50;;;;;;;23.17;14.95;;;;;;;29.77;54.25;99704.72;5045196;28;20018;-65
2021/07/15 05:55:16;;;;;;;23.60;14.18;;;;;;;30.04;52.62;99707.72;5045250;28;20037;-65
2021/07/15 05:57:41;;;;;;;22.65;14.32;;;;;;;30.07;52.54;99700.88;5045388;28;20029;-68
2021/07/15 06:00:10;;;;;;;23.67;14.30;;;;;;;30.22;52.70;99699.91;5045750;28;20104;-68
2021/07/15 06:02:35;;;;;;;24.70;15.35;;;;;;;30.62;51.20;99701.28;5045241;28;20136;-66
2021/07/15 06:05:01;;;;;;;24.02;14.52;;;;;;;30.67;50.51;99703.94;5045272;28;20049;-68
2021/07/15 06:09:54;;;;;;;24.73;13.15;;;;;;;30.55;51.75;99689.88;5078608;28;20032;-76
2021/07/15 06:12:19;;;;;;;20.98;13.63;;;;;;;30.76;50.23;99691.25;5085204;28;20249;-76
2021/07/15 06:14:45;;;;;;;26.45;14.35;;;;;;;31.00;49.62;99685.66;5085068;28;20294;-76
2021/07/15 06:17:11;;;;;;;19.88;13.77;;;;;;;31.39;49.32;99679.88;5085007;28;20466;-76
2021/07/15 06:19:36;;;;;;;23.20;13.50;;;;;;;31.79;46.69;99675.56;5085022;28;20025;-76
2021/07/15 06:22:02;;;;;;;19.13;13.25;;;;;;;31.80;47.41;99679.13;5067088;28;20039;-76
2021/07/15 06:24:28;;;;;;;23.92;14.43;;;;;;;31.68;46.74;99674.13;5084691;28;20090;-76
2021/07/15 06:26:53;;;;;;;27.48;14.60;;;;;;;31.58;46.95;99672.38;5084708;28;20245;-76
2021/07/15 06:29:19;;;;;;;21.00;12.30;;;;;;;31.84;44.90;99650.03;5084756;28;20031;-76
2021/07/15 06:31:44;;;;;;;24.10;13.35;;;;;;;32.04;45.03;99663.28;5084764;28;20036;-76
2021/07/15 06:34:10;;;;;;;25.75;13.65;;;;;;;32.20;45.92;99663.78;5083544;28;20056;-76
2021/07/15 06:36:36;;;;;;;20.63;13.20;;;;;;;31.76;45.36;99594.06;5085195;28;20047;-76
2021/07/15 06:39:03;;;;;;;20.48;13.50;;;;;;;32.00;45.22;99657.63;5084642;28;20040;-76
2021/07/15 06:41:28;;;;;;;20.90;12.07;;;;;;;32.67;43.35;99651.53;5084802;28;20100;-76
2021/07/15 06:43:54;;;;;;;29.45;12.95;;;;;;;31.93;43.84;99639.97;5084828;28;20306;-76
2021/07/15 06:46:22;;;;;;;23.35;12.93;;;;;;;31.69;47.31;99656.59;5084427;28;20086;-76
2021/07/15 06:48:48;;;;;;;17.60;11.95;;;;;;;32.03;46.23;99651.53;5084854;28;20066;-76
2021/07/15 06:51:14;;;;;;;26.45;12.85;;;;;;;32.08;44.38;99645.94;5084570;28;20036;-76
2021/07/15 06:53:39;;;;;;;24.83;12.48;;;;;;;32.35;43.98;99639.66;5084626;28;20159;-76
2021/07/15 06:56:05;;;;;;;17.98;12.80;;;;;;;31.95;45.07;99629.53;5084658;28;20040;-76
2021/07/15 06:58:30;;;;;;;22.52;12.75;;;;;;;32.31;44.34;99624.94;5070482;28;20275;-76
2021/07/15 07:00:56;;;;;;;14.73;11.43;;;;;;;32.35;44.66;99636.09;5044504;28;20315;-76
2021/07/15 07:03:22;;;;;;;18.63;11.13;;;;;;;31.83;45.04;99630.03;5063848;28;20041;-76
2021/07/15 07:05:52;;;;;;;17.50;10.95;;;;;;;31.98;44.09;99634.41;5062149;28;20033;-76
2021/07/15 07:08:17;;;;;;;17.40;11.63;;;;;;;31.69;44.25;99635.53;5032475;28;20052;-76
2021/07/15 07:10:43;;;;;;;18.65;10.90;;;;;;;32.13;43.11;99623.09;5042544;28;20025;-77
2021/07/15 07:13:08;;;;;;;19.15;10.27;;;;;;;31.93;42.88;99629.84;5043537;28;20036;-76
2021/07/15 07:15:34;;;;;;;16.20;11.10;;;;;;;32.04;43.93;99628.50;5061060;28;20096;-76
2021/07/15 07:17:59;;;;;;;20.77;11.23;;;;;;;32.18;43.49;99628.47;5059925;28;20039;-76
2021/07/15 07:20:25;;;;;;;20.65;11.95;;;;;;;32.10;42.99;99618.25;5061845;28;20043;-76
2021/07/15 07:22:50;;;;;;;20.15;11.38;;;;;;;32.42;44.28;99619.25;5029754;28;20041;-76
2021/07/15 07:25:17;;;;;;;21.60;12.45;;;;;;;32.29;43.37;99620.91;5060380;28;20032;-76
2021/07/15 07:27:43;;;;;;;17.23;11.27;;;;;;;32.55;41.94;99624.66;5062034;28;20072;-76
2021/07/15 07:30:14;;;;;;;18.65;11.52;;;;;;;33.05;41.65;99629.25;5032411;28;20084;-77
2021/07/15 07:32:42;;;;;;;19.73;11.43;;;;;;;33.33;39.77;99619.78;5058952;28;20021;-77
2021/07/15 07:35:08;;;;;;;18.15;10.63;;;;;;;33.42;39.34;99617.06;5041157;28;20031;-76
2021/07/15 07:37:33;;;;;;;17.08;11.68;;;;;;;32.80;40.43;99615.06;5044720;28;20033;-77
2021/07/15 07:39:59;;;;;;;21.25;11.30;;;;;;;32.87;40.09;99623.66;5061596;28;20079;-76
2021/07/15 07:42:25;;;;;;;20.13;10.45;;;;;;;33.37;38.85;99614.47;5061088;28;20319;-77
2021/07/15 07:44:51;;;;;;;14.85;10.40;;;;;;;33.88;37.00;99598.19;5059782;28;20033;-77
2021/07/15 07:47:17;;;;;;;14.02;10.35;;;;;;;33.61;36.70;99621.19;5059123;28;20063;-77
2021/07/15 07:49:42;;;;;;;15.55;9.82;;;;;;;33.76;36.44;99605.41;5063233;28;20326;-76
2021/07/15 07:52:08;;;;;;;17.30;11.02;;;;;;;33.63;39.18;99616.19;5044425;28;20314;-76
2021/07/15 07:54:33;;;;;;;16.95;10.82;;;;;;;33.39;39.57;99601.22;5060946;28;20036;-77
2021/07/15 07:56:59;;;;;;;16.70;10.25;;;;;;;33.60;37.84;99610.50;5059661;28;20460;-76
2021/07/15 07:59:24;;;;;;;15.38;10.60;;;;;;;33.93;39.17;99617.25;5059499;28;20285;-77
2021/07/15 08:01:51;;;;;;;23.25;11.10;;;;;;;33.21;40.27;99603.84;5059845;28;20399;-76
2021/07/15 08:04:17;;;;;;;13.85;10.88;;;;;;;33.39;39.78;99607.53;5062816;28;20033;-76
2021/07/15 08:06:45;;;;;;;19.23;11.52;;;;;;;33.99;39.10;99615.16;5060594;28;20020;-77
2021/07/15 08:09:12;;;;;;;18.25;11.60;;;;;;;33.80;39.25;99590.69;5060967;28;20045;-77
2021/07/15 08:11:46;;;;;;;18.48;11.32;;;;;;;34.27;38.63;99610.19;5057176;28;20029;-76
2021/07/15 08:14:12;;;;;;;17.05;9.90;;;;;;;33.95;37.77;99605.94;5055006;28;20029;-76
2021/07/15 08:16:37;;;;;;;18.80;10.48;;;;;;;33.33;38.80;99606.03;5060311;28;20059;-76
2021/07/15 08:19:03;;;;;;;16.55;10.50;;;;;;;33.32;38.92;99598.94;5059723;28;20298;-76
2021/07/15 08:21:30;;;;;;;12.32;9.00;;;;;;;32.90;37.13;99595.59;5042798;28;20049;-76
2021/07/15 08:23:56;;;;;;;13.70;8.90;;;;;;;33.21;37.30;99595.59;5059275;28;20028;-76
2021/07/15 08:26:22;;;;;;;13.55;9.82;;;;;;;32.81;38.10;99597.47;5042185;28;20249;-76
2021/07/15 08:28:48;;;;;;;15.88;9.45;;;;;;;33.10;37.73;99580.53;5060739;28;20029;-74
2021/07/15 08:31:13;;;;;;;14.88;9.38;;;;;;;33.57;36.51;99576.28;5061414;28;20049;-74
2021/07/15 08:33:39;;;;;;;15.07;9.95;;;;;;;33.49;38.74;99584.47;5061546;28;20035;-74
2021/07/15 08:36:05;;;;;;;17.58;8.75;;;;;;;33.50;36.50;99570.44;5043476;28;20115;-74
2021/07/15 08:38:30;;;;;;;17.67;10.65;;;;;;;33.92;38.13;99576.38;5058286;28;20249;-74
2021/07/15 08:40:56;;;;;;;16.67;8.68;;;;;;;34.16;35.54;99575.91;5032010;28;20108;-74
2021/07/15 08:43:22;;;;;;;11.02;8.75;;;;;;;34.65;35.58;99577.41;5060453;28;20032;-74
2021/07/15 08:45:50;;;;;;;14.95;9.57;;;;;;;34.06;37.22;99573.47;5060603;28;20044;-74
2021/07/15 08:48:15;;;;;;;13.32;9.55;;;;;;;34.38;35.46;99575.81;5060963;28;20246;-74
2021/07/15 08:50:41;;;;;;;15.93;9.50;;;;;;;33.95;35.61;99575.72;5059058;28;20033;-74
2021/07/15 08:53:07;;;;;;;16.80;9.13;;;;;;;34.28;36.41;99579.63;5061619;28;20032;-74
2021/07/15 08:58:15;;;;;;;11.50;8.43;;;;;;;34.00;35.75;99572.84;5040951;28;20065;-74
2021/07/15 09:00:42;;;;;;;13.57;8.85;;;;;;;33.40;36.51;99561.69;5024219;28;20096;-74
2021/07/15 09:03:09;;;;;;;13.70;9.23;;;;;;;33.86;36.05;99569.41;5060263;28;20032;-74
2021/07/15 09:05:34;;;;;;;12.73;8.13;;;;;;;33.55;34.49;99562.06;5040577;28;20025;-74
2021/07/15 09:08:03;;;;;;;11.82;8.10;;;;;;;34.17;34.04;99548.13;5062030;28;20101;-74
2021/07/15 09:10:29;;;;;;;10.98;8.40;;;;;;;34.11;33.94;99559.59;5057771;28;20099;-74
2021/07/15 09:12:59;;;;;;;17.27;8.80;;;;;;;34.24;36.48;99548.44;5059830;28;20245;-74
2021/07/15 09:15:25;;;;;;;13.32;8.85;;;;;;;33.90;35.83;99551.97;5061529;28;20040;-74
2021/07/15 09:17:50;;;;;;;15.02;8.50;;;;;;;33.82;33.74;99550.03;5060063;28;20071;-74
2021/07/15 09:20:17;;;;;;;18.13;8.80;;;;;;;34.23;35.40;99541.31;5060092;28;20033;-74
2021/07/15 09:23:05;;;;;;;17.42;8.57;;;;;;;34.57;33.94;99543.28;5059571;28;20325;-74
2021/07/15 09:25:36;;;;;;;14.02;8.30;;;;;;;33.85;34.32;99548.56;5061416;28;20099;-74
2021/07/15 09:28:04;;;;;;;12.73;8.38;;;;;;;33.55;34.53;99537.34;5031280;28;20082;-74
2021/07/15 09:30:29;;;;;;;16.08;8.52;;;;;;;33.42;36.43;99537.47;5059203;28;20244;-74
2021/07/15 09:32:57;;;;;;;15.05;8.35;;;;;;;33.94;33.95;99539.22;5058751;28;20021;-74
2021/07/15 09:35:30;;;;;;;13.68;8.35;;;;;;;33.83;35.18;99528.88;5031235;28;20032;-74
2021/07/15 09:38:06;;;;;;;14.98;8.57;;;;;;;33.74;36.08;99526.06;5056837;28;20025;-74
2021/07/15 09:40:47;;;;;;;14.00;8.80;;;;;;;33.51;38.10;99511.66;5056990;28;20052;-75
2021/07/15 09:43:20;;;;;;;16.45;7.97;;;;;;;33.24;36.57;99515.41;5056117;28;20318;-74
2021/07/15 09:45:48;;;;;;;11.63;7.90;;;;;;;33.26;35.35;99515.88;5057869;28;20075;-74
2021/07/15 09:48:22;;;;;;;10.52;7.70;;;;;;;33.05;34.77;99492.09;5059334;28;20033;-74
2021/07/15 09:50:49;;;;;;;15.23;8.13;;;;;;;32.69;35.84;99512.22;5039135;28;20035;-74
2021/07/15 09:53:22;;;;;;;12.63;7.95;;;;;;;32.64;34.86;99506.88;5059155;28;20025;-74
2021/07/15 09:55:57;;;;;;;11.60;6.82;;;;;;;32.98;32.93;99509.81;5063048;28;20308;-74
2021/07/15 09:58:23;;;;;;;13.95;6.68;;;;;;;32.91;31.57;99506.72;5074811;28;20032;-74
2021/07/15 10:00:48;;;;;;;11.60;7.20;;;;;;;32.96;35.66;99501.09;5040115;28;20330;-74
2021/07/15 10:03:16;;;;;;;11.10;6.88;;;;;;;32.88;32.57;99499.13;5042395;28;20032;-74
2021/07/15 10:05:55;;;;;;;7.28;5.55;;;;;;;32.71;30.69;99493.50;5057124;28;20033;-74
2021/07/15 10:08:26;;;;;;;9.05;5.95;;;;;;;32.68;30.48;99494.94;5061056;28;20041;-75
2021/07/15 10:10:52;;;;;;;10.57;6.47;;;;;;;32.79;30.85;99491.97;5061136;28;20040;-74
2021/07/15 10:13:23;;;;;;;10.23;5.70;;;;;;;33.15;30.78;99489.06;5063856;28;20056;-74
2021/07/15 10:15:51;;;;;;;10.57;7.22;;;;;;;32.98;32.46;99495.28;5043552;28;20358;-74
2021/07/15 10:18:46;;;;;;;9.85;7.53;;;;;;;33.17;32.42;99484.06;5063261;28;20139;-74
2021/07/15 10:21:13;;;;;;;11.85;7.00;;;;;;;33.53;31.55;99478.41;5052008;28;20164;-74
2021/07/15 10:23:42;;;;;;;14.00;6.72;;;;;;;33.73;29.91;99483.28;5063934;28;20088;-74
2021/07/15 10:26:09;;;;;;;11.23;6.13;;;;;;;33.47;28.98;99482.44;5061704;28;20090;-74
2021/07/15 10:28:35;;;;;;;13.65;7.22;;;;;;;33.30;31.91;99485.94;5061288;28;20130;-74
2021/07/15 10:31:07;;;;;;;10.05;6.90;;;;;;;33.47;29.56;99480.50;5060378;28;20040;-74
2021/07/15 10:33:34;;;;;;;14.35;7.35;;;;;;;32.96;32.31;99483.81;5062045;28;20041;-74
2021/07/15 10:36:01;;;;;;;11.68;6.80;;;;;;;32.92;31.46;99466.38;5063221;28;20039;-74
2021/07/15 10:38:28;;;;;;;11.50;7.05;;;;;;;32.95;30.99;99472.03;5039497;28;20191;-74
2021/07/15 10:40:58;;;;;;;14.63;7.35;;;;;;;33.29;30.12;99457.69;5062611;28;20033;-74
2021/07/15 10:43:24;;;;;;;10.70;7.00;;;;;;;33.21;32.97;99485.03;5062150;28;20209;-74
2021/07/15 10:45:52;;;;;;;14.05;7.30;;;;;;;33.09;32.05;99439.00;5061500;28;20039;-74
2021/07/15 10:48:19;;;;;;;14.20;7.10;;;;;;;33.06;33.08;99471.75;5058686;28;20072;-74
2021/07/15 10:50:44;;;;;;;14.70;6.68;;;;;;;33.04;33.40;99465.78;5062759;28;20033;-74
2021/07/15 10:53:13;;;;;;;8.45;7.10;;;;;;;33.12;31.95;99460.31;5042634;28;20028;-74
2021/07/15 10:55:40;;;;;;;10.85;6.80;;;;;;;33.16;33.29;99465.97;5065328;28;20041;-74
2021/07/15 10:58:05;;;;;;;14.38;6.95;;;;;;;33.14;31.63;99452.59;5060205;28;20221;-74
2021/07/15 11:00:31;;;;;;;8.63;5.80;;;;;;;33.09;32.25;99460.16;5062047;28;20048;-74
2021/07/15 11:03:21;;;;;;;11.13;6.22;;;;;;;32.96;32.49;99462.69;5061899;28;20047;-74
2021/07/15 11:05:50;;;;;;;12.40;6.50;;;;;;;33.23;30.03;99444.38;5060080;28;20048;-74
2021/07/15 11:08:17;;;;;;;9.27;6.00;;;;;;;33.23;31.20;99463.59;5061842;28;20032;-74
2021/07/15 11:10:44;;;;;;;14.57;6.45;;;;;;;33.30;31.96;99453.00;5062076;28;20230;-74
2021/07/15 11:13:10;;;;;;;11.70;6.00;;;;;;;33.30;30.83;99455.75;5061948;28;20091;-74
2021/07/15 11:15:55;;;;;;;7.93;6.05;;;;;;;33.36;32.21;99459.16;5059936;28;20041;-74
2021/07/15 11:18:47;;;;;;;8.15;5.78;;;;;;;33.29;32.59;99448.59;5059550;28;20062;-74
2021/07/15 11:21:30;;;;;;;13.48;5.90;;;;;;;33.22;30.93;99440.00;5051191;28;20092;-74
2021/07/15 11:24:04;;;;;;;11.25;6.22;;;;;;;33.42;32.02;99433.97;5061762;28;20029;-74
2021/07/15 11:26:41;;;;;;;16.80;6.60;;;;;;;33.26;31.60;99436.31;5062803;28;20330;-74
2021/07/15 11:29:07;;;;;;;13.73;6.13;;;;;;;33.13;32.47;99434.50;5060287;28;20111;-74
2021/07/15 11:31:46;;;;;;;13.38;5.93;;;;;;;33.31;31.49;99430.72;5042847;28;20337;-74